Time,TemperatureF,DewpointF,PressureIn,WindDirection,WindDirectionDegrees,WindSpeedMPH,WindSpeedGustMPH,Humidity,HourlyPrecipIn,Conditions,Clouds,dailyrainin,SoftwareType,DateUTC
2013-02-17 00:00:00,30.6,30.1,29.63,WNW,300,2.0,5.0,98,0.00,,SKC,0.04,VWS V14.01,2013-02-17 05:00:00,
2013-02-17 00:01:00,30.6,30.1,29.63,WNW,300,0.0,5.0,98,0.00,,SKC,0.04,VWS V14.01,2013-02-17 05:01:00,
2013-02-17 00:07:00,30.4,29.9,29.64,WNW,300,0.0,4.0,98,0.00,,SKC,0.00,VWS V14.01,2013-02-17 05:07:00,
2013-02-17 00:10:00,30.4,29.9,29.64,WNW,300,0.0,4.0,98,0.00,,SKC,0.00,VWS V14.01,2013-02-17 05:10:00,
2013-02-17 00:12:00,30.4,29.9,29.64,WNW,300,0.0,0.0,98,0.00,,SKC,0.00,VWS V14.01,2013-02-17 05:12:00,
2013-02-17 00:17:00,30.4,29.9,29.64,WNW,300,0.0,3.0,98,0.00,,SKC,0.00,VWS V14.01,2013-02-17 05:17:00,
2013-02-17 00:20:00,30.4,29.9,29.64,WNW,300,2.0,6.0,98,0.00,,SKC,0.00,VWS V14.01,2013-02-17 05:20:00,
2013-02-17 00:30:00,30.3,29.8,29.63,WNW,292,1.0,6.0,98,0.00,,SKC,0.00,VWS V14.01,2013-02-17 05:30:00,
2013-02-17 00:40:00,30.1,29.4,29.62,WNW,292,1.0,7.0,97,0.00,,SKC,0.00,VWS V14.01,2013-02-17 05:40:00,
2013-02-17 00:50:00,29.8,29.0,29.61,WNW,292,1.0,4.0,97,0.00,,SKC,0.00,VWS V14.01,2013-02-17 05:50:00,
2013-02-17 01:00:00,29.7,29.0,29.61,WNW,292,1.0,4.0,97,0.00,,SKC,0.00,VWS V14.01,2013-02-17 06:00:00,
2013-02-17 01:10:00,29.5,28.8,29.61,WNW,292,1.0,6.0,97,0.00,,SKC,0.00,VWS V14.01,2013-02-17 06:10:00,
2013-02-17 01:20:00,29.4,28.7,29.60,WNW,292,1.0,5.0,97,0.00,,SKC,0.00,VWS V14.01,2013-02-17 06:20:00,
2013-02-17 01:30:00,29.3,28.6,29.59,WNW,292,1.0,6.0,97,0.00,,SKC,0.00,VWS V14.01,2013-02-17 06:30:00,
2013-02-17 01:40:00,29.1,28.4,29.60,WNW,292,1.0,7.0,97,0.00,,SKC,0.00,VWS V14.01,2013-02-17 06:40:00,
2013-02-17 01:50:00,29.0,28.3,29.59,WNW,292,1.0,4.0,97,0.00,,SKC,0.00,VWS V14.01,2013-02-17 06:50:00,
2013-02-17 02:00:00,28.7,28.0,29.59,WNW,292,1.0,4.0,97,0.00,,SKC,0.00,VWS V14.01,2013-02-17 07:00:00,
2013-02-17 02:10:00,28.5,27.8,29.58,WNW,292,1.0,6.0,97,0.00,,SKC,0.00,VWS V14.01,2013-02-17 07:10:00,
2013-02-17 02:20:00,28.4,27.7,29.57,WNW,292,1.0,7.0,97,0.00,,SKC,0.00,VWS V14.01,2013-02-17 07:20:00,
2013-02-17 02:30:00,28.1,27.4,29.56,WNW,292,1.0,9.0,97,0.00,,SKC,0.00,VWS V14.01,2013-02-17 07:30:00,
2013-02-17 02:40:00,27.8,27.1,29.56,WNW,292,2.0,6.0,97,0.00,,SKC,0.00,VWS V14.01,2013-02-17 07:40:00,
2013-02-17 02:50:00,27.6,26.9,29.56,WNW,292,1.0,6.0,97,0.00,,SKC,0.00,VWS V14.01,2013-02-17 07:50:00,
2013-02-17 03:00:00,27.3,26.6,29.58,WNW,292,2.0,6.0,97,0.00,,SKC,0.00,VWS V14.01,2013-02-17 08:00:00,
2013-02-17 03:10:00,27.0,26.3,29.57,WNW,292,2.0,6.0,97,0.00,,SKC,0.00,VWS V14.01,2013-02-17 08:10:00,
2013-02-17 03:20:00,26.7,26.2,29.57,WNW,292,1.0,4.0,98,0.00,,SKC,0.00,VWS V14.01,2013-02-17 08:20:00,
2013-02-17 03:30:00,26.4,25.2,29.56,WNW,292,1.0,5.0,95,0.00,,SKC,0.00,VWS V14.01,2013-02-17 08:30:00,
2013-02-17 03:40:00,26.1,25.4,29.56,WNW,292,2.0,9.0,97,0.00,,SKC,0.00,VWS V14.01,2013-02-17 08:40:00,
2013-02-17 03:50:00,25.7,25.0,29.55,WNW,292,1.0,6.0,97,0.00,,SKC,0.00,VWS V14.01,2013-02-17 08:50:00,
2013-02-17 04:00:00,25.4,24.7,29.56,WNW,292,2.0,5.0,97,0.00,,SKC,0.00,VWS V14.01,2013-02-17 09:00:00,
2013-02-17 04:10:00,25.0,24.3,29.57,WNW,292,2.0,8.0,97,0.00,,SKC,0.00,VWS V14.01,2013-02-17 09:10:00,
2013-02-17 04:20:00,24.5,23.8,29.56,WNW,292,1.0,4.0,97,0.00,,SKC,0.00,VWS V14.01,2013-02-17 09:20:00,
2013-02-17 04:30:00,24.2,23.5,29.57,WNW,292,2.0,5.0,97,0.00,,SKC,0.00,VWS V14.01,2013-02-17 09:30:00,
2013-02-17 04:40:00,23.9,23.2,29.56,WNW,292,2.0,8.0,97,0.00,,SKC,0.00,VWS V14.01,2013-02-17 09:40:00,
2013-02-17 04:50:00,23.8,23.1,29.54,WNW,292,2.0,7.0,97,0.00,,SKC,0.00,VWS V14.01,2013-02-17 09:50:00,
2013-02-17 05:00:00,23.5,22.8,29.53,WNW,292,2.0,6.0,97,0.00,,SKC,0.00,VWS V14.01,2013-02-17 10:00:00,
2013-02-17 05:10:00,23.2,22.5,29.53,WNW,292,2.0,9.0,97,0.00,,SKC,0.00,VWS V14.01,2013-02-17 10:10:00,
2013-02-17 05:20:00,23.2,22.5,29.52,WNW,292,1.0,9.0,97,0.00,,SKC,0.00,VWS V14.01,2013-02-17 10:20:00,
2013-02-17 05:30:00,23.0,22.3,29.52,WNW,292,2.0,5.0,97,0.00,,SKC,0.00,VWS V14.01,2013-02-17 10:30:00,
2013-02-17 05:40:00,22.9,22.2,29.52,WNW,292,2.0,5.0,97,0.00,,SKC,0.00,VWS V14.01,2013-02-17 10:40:00,
2013-02-17 05:50:00,22.7,22.0,29.52,WNW,292,2.0,9.0,97,0.00,,SKC,0.00,VWS V14.01,2013-02-17 10:50:00,
2013-02-17 06:00:00,22.5,21.8,29.50,WNW,292,2.0,6.0,97,0.00,,SKC,0.00,VWS V14.01,2013-02-17 11:00:00,
2013-02-17 06:10:00,22.4,21.4,29.50,WNW,292,2.0,11.0,96,0.00,,SKC,0.00,VWS V14.01,2013-02-17 11:10:00,
2013-02-17 06:20:00,22.2,21.2,29.50,WNW,292,2.0,7.0,96,0.00,,SKC,0.00,VWS V14.01,2013-02-17 11:20:00,
2013-02-17 06:30:00,22.4,21.4,29.50,WNW,292,2.0,7.0,96,0.00,,SKC,0.00,VWS V14.01,2013-02-17 11:30:00,
2013-02-17 06:40:00,22.4,21.4,29.50,WNW,292,2.0,6.0,96,0.00,,SKC,0.00,VWS V14.01,2013-02-17 11:40:00,
2013-02-17 06:50:00,22.5,21.3,29.50,WNW,292,2.0,9.0,95,0.00,,SKC,0.00,VWS V14.01,2013-02-17 11:50:00,
2013-02-17 07:00:00,22.7,21.2,29.51,WNW,292,2.0,8.0,94,0.00,,SKC,0.00,VWS V14.01,2013-02-17 12:00:00,
2013-02-17 07:10:00,22.7,21.0,29.51,WNW,292,2.0,8.0,93,0.00,,SKC,0.00,VWS V14.01,2013-02-17 12:10:00,
2013-02-17 07:20:00,22.9,20.9,29.51,WNW,292,2.0,9.0,92,0.00,,SKC,0.00,VWS V14.01,2013-02-17 12:20:00,
2013-02-17 07:30:00,22.7,20.5,29.50,WNW,292,2.0,8.0,91,0.00,,SKC,0.00,VWS V14.01,2013-02-17 12:30:00,
2013-02-17 07:40:00,22.4,19.9,29.50,WNW,292,3.0,10.0,90,0.00,,SKC,0.00,VWS V14.01,2013-02-17 12:40:00,
2013-02-17 07:50:00,22.2,19.2,29.49,WNW,292,2.0,10.0,88,0.00,,SKC,0.00,VWS V14.01,2013-02-17 12:50:00,
2013-02-17 08:00:00,22.4,18.9,29.49,WNW,292,2.0,8.0,86,0.00,,SKC,0.00,VWS V14.01,2013-02-17 13:00:00,
2013-02-17 08:10:00,22.5,18.1,29.50,WNW,292,3.0,8.0,83,0.00,,SKC,0.00,VWS V14.01,2013-02-17 13:10:00,
2013-02-17 08:20:00,22.9,18.0,29.50,WNW,292,2.0,8.0,81,0.00,,SKC,0.00,VWS V14.01,2013-02-17 13:20:00,
2013-02-17 08:30:00,23.3,17.8,29.50,WNW,292,2.0,8.0,79,0.00,,SKC,0.00,VWS V14.01,2013-02-17 13:30:00,
2013-02-17 08:40:00,23.5,18.0,29.49,WNW,292,2.0,8.0,79,0.00,,SKC,0.00,VWS V14.01,2013-02-17 13:40:00,
2013-02-17 08:50:00,23.6,17.2,29.49,WNW,292,3.0,11.0,76,0.00,,SKC,0.00,VWS V14.01,2013-02-17 13:50:00,
2013-02-17 09:00:00,23.6,16.2,29.49,WNW,292,3.0,7.0,73,0.00,,SKC,0.00,VWS V14.01,2013-02-17 14:00:00,
2013-02-17 09:10:00,23.5,15.5,29.49,WNW,292,3.0,11.0,71,0.00,,SKC,0.00,VWS V14.01,2013-02-17 14:10:00,
2013-02-17 09:20:00,23.6,15.3,29.49,WNW,292,3.0,12.0,70,0.00,,SKC,0.00,VWS V14.01,2013-02-17 14:20:00,
2013-02-17 09:30:00,23.8,14.8,29.49,WNW,292,3.0,9.0,68,0.00,,SKC,0.00,VWS V14.01,2013-02-17 14:30:00,
2013-02-17 09:40:00,23.9,14.6,29.49,WNW,292,2.0,9.0,67,0.00,,SKC,0.00,VWS V14.01,2013-02-17 14:40:00,
2013-02-17 09:50:00,23.9,13.9,29.49,WNW,292,4.0,12.0,65,0.00,,SKC,0.00,VWS V14.01,2013-02-17 14:50:00,
2013-02-17 10:00:00,23.9,13.5,29.49,WNW,292,3.0,11.0,64,0.00,,SKC,0.00,VWS V14.01,2013-02-17 15:00:00,
2013-02-17 10:10:00,23.9,13.5,29.50,WNW,292,3.0,12.0,64,0.00,,SKC,0.00,VWS V14.01,2013-02-17 15:10:00,
2013-02-17 10:20:00,24.1,13.3,29.49,WNW,292,3.0,9.0,63,0.00,,SKC,0.00,VWS V14.01,2013-02-17 15:20:00,
2013-02-17 10:30:00,24.2,13.4,29.49,WNW,292,3.0,10.0,63,0.00,,SKC,0.00,VWS V14.01,2013-02-17 15:30:00,
2013-02-17 10:50:00,24.7,12.8,29.50,WNW,300,2.0,3.0,60,0.00,,SKC,0.00,VWS V14.01,2013-02-17 15:50:00,
2013-02-17 11:07:00,25.0,12.7,29.50,WNW,300,0.0,7.0,59,0.00,,SKC,0.00,VWS V14.01,2013-02-17 16:07:00,
2013-02-17 11:12:00,25.1,12.8,29.51,WNW,300,3.0,6.0,59,0.00,,SKC,0.00,VWS V14.01,2013-02-17 16:12:00,
2013-02-17 11:17:00,25.3,12.6,29.50,WNW,300,4.0,8.0,58,0.00,,SKC,0.00,VWS V14.01,2013-02-17 16:17:00,
2013-02-17 11:22:00,25.3,12.2,29.51,WNW,300,2.0,6.0,57,0.00,,SKC,0.00,VWS V14.01,2013-02-17 16:22:00,
2013-02-17 11:27:00,25.4,11.9,29.50,WNW,300,6.0,8.0,56,0.00,,SKC,0.00,VWS V14.01,2013-02-17 16:27:00,
2013-02-17 11:32:00,25.6,12.5,29.50,WNW,300,6.0,7.0,57,0.00,,SKC,0.00,VWS V14.01,2013-02-17 16:32:00,
2013-02-17 11:37:00,25.8,12.7,29.50,WNW,300,5.0,12.0,57,0.00,,SKC,0.00,VWS V14.01,2013-02-17 16:37:00,
2013-02-17 11:42:00,25.8,12.3,29.51,WNW,300,2.0,9.0,56,0.00,,SKC,0.00,VWS V14.01,2013-02-17 16:42:00,
2013-02-17 11:47:00,26.1,11.7,29.51,WNW,300,2.0,11.0,54,0.00,,SKC,0.00,VWS V14.01,2013-02-17 16:47:00,
2013-02-17 11:53:00,26.3,11.5,29.51,WNW,300,1.0,8.0,53,0.00,,SKC,0.00,VWS V14.01,2013-02-17 16:53:00,
2013-02-17 11:58:00,26.4,11.6,29.51,WNW,300,1.0,10.0,53,0.00,,SKC,0.00,VWS V14.01,2013-02-17 16:58:00,
2013-02-17 12:03:00,26.7,12.7,29.50,WNW,300,3.0,6.0,55,0.00,,SKC,0.00,VWS V14.01,2013-02-17 17:03:00,
2013-02-17 12:08:00,26.9,12.1,29.50,WNW,300,2.0,11.0,53,0.00,,SKC,0.00,VWS V14.01,2013-02-17 17:08:00,
2013-02-17 12:13:00,26.9,12.1,29.50,WNW,300,1.0,9.0,53,0.00,,SKC,0.00,VWS V14.01,2013-02-17 17:13:00,
2013-02-17 12:18:00,27.0,12.2,29.51,WNW,300,4.0,11.0,53,0.00,,SKC,0.00,VWS V14.01,2013-02-17 17:18:00,
2013-02-17 12:23:00,27.0,11.7,29.50,WNW,300,5.0,13.0,52,0.00,,SKC,0.00,VWS V14.01,2013-02-17 17:23:00,
2013-02-17 12:28:00,27.0,11.3,29.51,WNW,300,5.0,13.0,51,0.00,,SKC,0.00,VWS V14.01,2013-02-17 17:28:00,
2013-02-17 12:33:00,27.2,11.0,29.51,WNW,300,3.0,9.0,50,0.00,,SKC,0.00,VWS V14.01,2013-02-17 17:33:00,
2013-02-17 12:38:00,27.3,11.1,29.51,WNW,300,3.0,14.0,50,0.00,,SKC,0.00,VWS V14.01,2013-02-17 17:38:00,
2013-02-17 12:43:00,27.2,11.9,29.51,WNW,300,6.0,13.0,52,0.00,,SKC,0.00,VWS V14.01,2013-02-17 17:43:00,
2013-02-17 12:48:00,27.3,11.1,29.51,WNW,300,2.0,13.0,50,0.00,,SKC,0.00,VWS V14.01,2013-02-17 17:48:00,
2013-02-17 12:54:00,27.6,11.9,29.52,WNW,300,3.0,8.0,51,0.00,,SKC,0.00,VWS V14.01,2013-02-17 17:54:00,
2013-02-17 12:59:00,27.8,12.0,29.51,WNW,300,6.0,10.0,51,0.00,,SKC,0.00,VWS V14.01,2013-02-17 17:59:00,
2013-02-17 13:04:00,27.8,11.6,29.52,WNW,300,4.0,12.0,50,0.00,,SKC,0.00,VWS V14.01,2013-02-17 18:04:00,
2013-02-17 13:09:00,27.9,11.2,29.51,WNW,300,7.0,15.0,49,0.00,,SKC,0.00,VWS V14.01,2013-02-17 18:09:00,
2013-02-17 13:14:00,27.8,10.2,29.52,WNW,300,15.0,15.0,47,0.00,,SKC,0.00,VWS V14.01,2013-02-17 18:14:00,
2013-02-17 13:19:00,27.6,9.5,29.52,WNW,300,4.0,19.0,46,0.00,,SKC,0.00,VWS V14.01,2013-02-17 18:19:00,
2013-02-17 13:24:00,27.9,9.3,29.52,WNW,300,6.0,15.0,45,0.00,,SKC,0.00,VWS V14.01,2013-02-17 18:24:00,
2013-02-17 13:29:00,27.9,8.8,29.52,WNW,300,11.0,15.0,44,0.00,,SKC,0.00,VWS V14.01,2013-02-17 18:29:00,
2013-02-17 13:34:00,28.4,9.3,29.53,WNW,300,3.0,9.0,44,0.00,,SKC,0.00,VWS V14.01,2013-02-17 18:34:00,
2013-02-17 13:39:00,28.5,9.4,29.52,NNW,330,6.0,11.0,44,0.00,,SKC,0.00,VWS V14.01,2013-02-17 18:39:00,
2013-02-17 13:45:00,28.8,9.6,29.53,NNW,330,0.0,10.0,44,0.00,,SKC,0.00,VWS V14.01,2013-02-17 18:45:00,
2013-02-17 13:50:00,28.8,9.1,29.53,NNW,330,3.0,13.0,43,0.00,,SKC,0.00,VWS V14.01,2013-02-17 18:50:00,
2013-02-17 13:55:00,28.5,8.9,29.53,NNW,330,4.0,21.0,43,0.00,,SKC,0.00,VWS V14.01,2013-02-17 18:55:00,
2013-02-17 14:00:00,28.5,8.9,29.53,NNW,330,5.0,21.0,43,0.00,,SKC,0.00,VWS V14.01,2013-02-17 19:00:00,
2013-02-17 14:05:00,28.4,7.7,29.54,NNW,330,4.0,15.0,41,0.00,,SKC,0.00,VWS V14.01,2013-02-17 19:05:00,
2013-02-17 14:10:00,28.4,8.8,29.54,NNW,330,5.0,16.0,43,0.00,,SKC,0.00,VWS V14.01,2013-02-17 19:10:00,
2013-02-17 14:15:00,28.4,9.3,29.54,NNW,330,8.0,10.0,44,0.00,,SKC,0.00,VWS V14.01,2013-02-17 19:15:00,
2013-02-17 14:20:00,28.2,8.1,29.55,NNW,330,11.0,14.0,42,0.00,,SKC,0.00,VWS V14.01,2013-02-17 19:20:00,
2013-02-17 14:25:00,27.9,7.3,29.54,NNW,330,5.0,11.0,41,0.00,,SKC,0.00,VWS V14.01,2013-02-17 19:25:00,
2013-02-17 14:30:00,27.9,7.8,29.55,NNW,330,2.0,12.0,42,0.00,,SKC,0.00,VWS V14.01,2013-02-17 19:30:00,
2013-02-17 14:35:00,28.1,6.9,29.55,NNW,330,4.0,13.0,40,0.00,,SKC,0.00,VWS V14.01,2013-02-17 19:35:00,
2013-02-17 14:40:00,28.2,7.0,29.55,NNW,330,1.0,23.0,40,0.00,,SKC,0.00,VWS V14.01,2013-02-17 19:40:00,
2013-02-17 14:45:00,28.5,7.3,29.56,NNW,330,5.0,14.0,40,0.00,,SKC,0.00,VWS V14.01,2013-02-17 19:45:00,
2013-02-17 14:50:00,28.5,6.7,29.56,NNW,330,4.0,14.0,39,0.00,,SKC,0.00,VWS V14.01,2013-02-17 19:50:00,
2013-02-17 14:56:00,28.7,8.0,29.56,NNW,330,2.0,10.0,41,0.00,,SKC,0.00,VWS V14.01,2013-02-17 19:56:00,
2013-02-17 15:01:00,29.1,8.9,29.56,NNW,330,8.0,10.0,42,0.00,,SKC,0.00,VWS V14.01,2013-02-17 20:01:00,
2013-02-17 15:06:00,29.4,9.2,29.56,NNW,330,5.0,9.0,42,0.00,,SKC,0.00,VWS V14.01,2013-02-17 20:06:00,
2013-02-17 15:11:00,29.4,8.6,29.56,NNW,330,2.0,12.0,41,0.00,,SKC,0.00,VWS V14.01,2013-02-17 20:11:00,
2013-02-17 15:16:00,29.5,7.6,29.57,NNW,330,1.0,11.0,39,0.00,,SKC,0.00,VWS V14.01,2013-02-17 20:16:00,
2013-02-17 15:21:00,29.4,6.4,29.57,NNW,330,3.0,14.0,37,0.00,,SKC,0.00,VWS V14.01,2013-02-17 20:21:00,
2013-02-17 15:26:00,29.1,6.1,29.57,NNW,330,9.0,14.0,37,0.00,,SKC,0.00,VWS V14.01,2013-02-17 20:26:00,
2013-02-17 15:31:00,29.0,7.7,29.57,NNW,330,3.0,14.0,40,0.00,,SKC,0.00,VWS V14.01,2013-02-17 20:31:00,
2013-02-17 15:36:00,28.8,7.5,29.57,NNW,330,4.0,10.0,40,0.00,,SKC,0.00,VWS V14.01,2013-02-17 20:36:00,
2013-02-17 15:41:00,28.8,7.5,29.58,NNW,330,0.0,1.0,40,0.00,,SKC,0.00,VWS V14.01,2013-02-17 20:41:00,
2013-02-17 15:47:00,28.8,6.4,29.58,NNW,330,6.0,12.0,38,0.00,,SKC,0.00,VWS V14.01,2013-02-17 20:47:00,
2013-02-17 15:52:00,28.7,5.7,29.58,NNW,330,7.0,7.0,37,0.00,,SKC,0.00,VWS V14.01,2013-02-17 20:52:00,
2013-02-17 15:57:00,28.5,5.6,29.58,NNW,330,5.0,17.0,37,0.00,,SKC,0.00,VWS V14.01,2013-02-17 20:57:00,
2013-02-17 16:02:00,28.5,5.0,29.59,NNW,330,6.0,7.0,36,0.00,,SKC,0.00,VWS V14.01,2013-02-17 21:02:00,
2013-02-17 16:07:00,28.4,4.9,29.59,NNW,330,2.0,13.0,36,0.00,,SKC,0.00,VWS V14.01,2013-02-17 21:07:00,
2013-02-17 16:12:00,28.4,6.1,29.58,NNW,330,2.0,6.0,38,0.00,,SKC,0.00,VWS V14.01,2013-02-17 21:12:00,
2013-02-17 16:17:00,28.4,5.5,29.59,NNW,330,8.0,15.0,37,0.00,,SKC,0.00,VWS V14.01,2013-02-17 21:17:00,
2013-02-17 16:22:00,28.4,6.1,29.59,NNW,330,5.0,5.0,38,0.00,,SKC,0.00,VWS V14.01,2013-02-17 21:22:00,
2013-02-17 16:27:00,28.2,6.4,29.59,NNW,330,5.0,12.0,39,0.00,,SKC,0.00,VWS V14.01,2013-02-17 21:27:00,
2013-02-17 16:32:00,28.2,6.4,29.60,NNW,330,4.0,5.0,39,0.00,,SKC,0.00,VWS V14.01,2013-02-17 21:32:00,
2013-02-17 16:38:00,28.2,6.4,29.60,NNW,330,1.0,11.0,39,0.00,,SKC,0.00,VWS V14.01,2013-02-17 21:38:00,
2013-02-17 16:43:00,28.2,6.4,29.60,NNW,330,2.0,12.0,39,0.00,,SKC,0.00,VWS V14.01,2013-02-17 21:43:00,
2013-02-17 16:48:00,28.1,6.9,29.61,NNW,330,1.0,12.0,40,0.00,,SKC,0.00,VWS V14.01,2013-02-17 21:48:00,
2013-02-17 16:53:00,28.1,6.9,29.61,NNW,330,6.0,8.0,40,0.00,,SKC,0.00,VWS V14.01,2013-02-17 21:53:00,
2013-02-17 16:58:00,28.1,6.9,29.61,NNW,330,2.0,11.0,40,0.00,,SKC,0.00,VWS V14.01,2013-02-17 21:58:00,
2013-02-17 17:03:00,28.1,6.9,29.61,NNW,330,14.0,14.0,40,0.00,,SKC,0.00,VWS V14.01,2013-02-17 22:03:00,
2013-02-17 17:08:00,28.1,5.8,29.62,NNW,330,3.0,14.0,38,0.00,,SKC,0.00,VWS V14.01,2013-02-17 22:08:00,
2013-02-17 17:13:00,27.9,7.3,29.62,NNW,330,7.0,10.0,41,0.00,,SKC,0.00,VWS V14.01,2013-02-17 22:13:00,
2013-02-17 17:18:00,27.9,7.8,29.62,NNW,330,3.0,15.0,42,0.00,,SKC,0.00,VWS V14.01,2013-02-17 22:18:00,
2013-02-17 17:24:00,27.8,7.7,29.62,NNW,330,1.0,13.0,42,0.00,,SKC,0.00,VWS V14.01,2013-02-17 22:24:00,
2013-02-17 17:29:00,27.6,7.5,29.63,NNW,330,0.0,13.0,42,0.00,,SKC,0.00,VWS V14.01,2013-02-17 22:29:00,
2013-02-17 17:34:00,27.5,6.4,29.64,NNW,330,5.0,9.0,40,0.00,,SKC,0.00,VWS V14.01,2013-02-17 22:34:00,
2013-02-17 17:39:00,27.3,7.2,29.64,NNW,330,3.0,12.0,42,0.00,,SKC,0.00,VWS V14.01,2013-02-17 22:39:00,
2013-02-17 17:44:00,27.2,7.7,29.64,NNW,330,3.0,12.0,43,0.00,,SKC,0.00,VWS V14.01,2013-02-17 22:44:00,
2013-02-17 17:49:00,27.0,7.0,29.65,NNW,330,2.0,12.0,42,0.00,,SKC,0.00,VWS V14.01,2013-02-17 22:49:00,
2013-02-17 17:54:00,27.0,7.5,29.65,NNW,330,4.0,14.0,43,0.00,,SKC,0.00,VWS V14.01,2013-02-17 22:54:00,
2013-02-17 17:59:00,26.9,6.9,29.65,NNW,330,4.0,18.0,42,0.00,,SKC,0.00,VWS V14.01,2013-02-17 22:59:00,
2013-02-17 18:04:00,26.7,6.7,29.66,NNW,330,1.0,13.0,42,0.00,,SKC,0.00,VWS V14.01,2013-02-17 23:04:00,
2013-02-17 18:10:00,26.7,6.7,29.66,NNW,330,5.0,13.0,42,0.00,,SKC,0.00,VWS V14.01,2013-02-17 23:10:00,
2013-02-17 18:15:00,26.6,6.6,29.66,NNW,330,2.0,13.0,42,0.00,,SKC,0.00,VWS V14.01,2013-02-17 23:15:00,
2013-02-17 18:20:00,26.6,6.6,29.67,NNW,330,2.0,13.0,42,0.00,,SKC,0.00,VWS V14.01,2013-02-17 23:20:00,
2013-02-17 18:25:00,26.4,6.4,29.67,NNW,330,3.0,8.0,42,0.00,,SKC,0.00,VWS V14.01,2013-02-17 23:25:00,
2013-02-17 18:30:00,26.4,6.9,29.67,NNW,330,2.0,10.0,43,0.00,,SKC,0.00,VWS V14.01,2013-02-17 23:30:00,
2013-02-17 18:35:00,26.3,7.4,29.67,NNW,330,5.0,13.0,44,0.00,,SKC,0.00,VWS V14.01,2013-02-17 23:35:00,
2013-02-17 18:40:00,26.3,7.4,29.68,NNW,330,1.0,13.0,44,0.00,,SKC,0.00,VWS V14.01,2013-02-17 23:40:00,
2013-02-17 18:45:00,26.1,7.7,29.68,NNW,330,2.0,8.0,45,0.00,,SKC,0.00,VWS V14.01,2013-02-17 23:45:00,
2013-02-17 18:50:00,26.0,7.6,29.68,NNW,330,0.0,12.0,45,0.00,,SKC,0.00,VWS V14.01,2013-02-17 23:50:00,
2013-02-17 18:55:00,26.0,7.6,29.68,NNW,330,4.0,13.0,45,0.00,,SKC,0.00,VWS V14.01,2013-02-17 23:55:00,
2013-02-17 19:00:00,25.8,7.4,29.68,NNW,330,3.0,13.0,45,0.00,,SKC,0.00,VWS V14.01,2013-02-18 00:00:00,
2013-02-17 19:05:00,25.7,7.3,29.69,NNW,330,3.0,9.0,45,0.00,,SKC,0.00,VWS V14.01,2013-02-18 00:05:00,
2013-02-17 19:10:00,25.7,7.3,29.69,NNW,330,3.0,11.0,45,0.00,,SKC,0.00,VWS V14.01,2013-02-18 00:10:00,
2013-02-17 19:15:00,25.6,8.2,29.69,NNW,330,6.0,10.0,47,0.00,,SKC,0.00,VWS V14.01,2013-02-18 00:15:00,
2013-02-17 19:20:00,25.4,6.5,29.69,NNW,330,10.0,14.0,44,0.00,,SKC,0.00,VWS V14.01,2013-02-18 00:20:00,
2013-02-17 19:26:00,25.3,6.4,29.69,NNW,330,0.0,16.0,44,0.00,,SKC,0.00,VWS V14.01,2013-02-18 00:26:00,
2013-02-17 19:31:00,25.1,6.3,29.69,NNW,330,4.0,16.0,44,0.00,,SKC,0.00,VWS V14.01,2013-02-18 00:31:00,
2013-02-17 19:36:00,25.0,6.2,29.70,NNW,330,1.0,18.0,44,0.00,,SKC,0.00,VWS V14.01,2013-02-18 00:36:00,
2013-02-17 19:41:00,24.8,6.5,29.70,NNW,330,3.0,18.0,45,0.00,,SKC,0.00,VWS V14.01,2013-02-18 00:41:00,
2013-02-17 19:46:00,24.7,6.4,29.70,NNW,330,5.0,9.0,45,0.00,,SKC,0.00,VWS V14.01,2013-02-18 00:46:00,
2013-02-17 19:51:00,24.5,6.2,29.71,NNW,330,6.0,9.0,45,0.00,,SKC,0.00,VWS V14.01,2013-02-18 00:51:00,
2013-02-17 19:56:00,24.4,6.1,29.70,NNW,330,4.0,15.0,45,0.00,,SKC,0.00,VWS V14.01,2013-02-18 00:56:00,
2013-02-17 20:01:00,24.2,5.9,29.70,NNW,330,5.0,15.0,45,0.00,,SKC,0.00,VWS V14.01,2013-02-18 01:01:00,
2013-02-17 20:06:00,24.1,6.3,29.71,NNW,330,3.0,17.0,46,0.00,,SKC,0.00,VWS V14.01,2013-02-18 01:06:00,
2013-02-17 20:11:00,23.9,6.1,29.71,NNW,330,1.0,17.0,46,0.00,,SKC,0.00,VWS V14.01,2013-02-18 01:11:00,
2013-02-17 20:16:00,23.8,6.1,29.72,NNW,330,2.0,8.0,46,0.00,,SKC,0.00,VWS V14.01,2013-02-18 01:16:00,
2013-02-17 20:21:00,23.6,5.9,29.72,NNW,330,9.0,9.0,46,0.00,,SKC,0.00,VWS V14.01,2013-02-18 01:21:00,
2013-02-17 20:27:00,23.5,6.2,29.72,NNW,330,1.0,11.0,47,0.00,,SKC,0.00,VWS V14.01,2013-02-18 01:27:00,
2013-02-17 20:32:00,23.2,6.4,29.72,NNW,330,5.0,7.0,48,0.00,,SKC,0.00,VWS V14.01,2013-02-18 01:32:00,
2013-02-17 20:37:00,23.0,5.3,29.73,NNW,330,8.0,19.0,46,0.00,,SKC,0.00,VWS V14.01,2013-02-18 01:37:00,
2013-02-17 20:42:00,22.9,5.7,29.73,NNW,330,14.0,14.0,47,0.00,,SKC,0.00,VWS V14.01,2013-02-18 01:42:00,
2013-02-17 20:47:00,22.7,6.0,29.73,NNW,330,10.0,14.0,48,0.00,,SKC,0.00,VWS V14.01,2013-02-18 01:47:00,
2013-02-17 20:52:00,22.5,5.8,29.73,NNW,330,4.0,10.0,48,0.00,,SKC,0.00,VWS V14.01,2013-02-18 01:52:00,
2013-02-17 20:57:00,22.5,6.2,29.73,NNW,330,3.0,17.0,49,0.00,,SKC,0.00,VWS V14.01,2013-02-18 01:57:00,
2013-02-17 21:02:00,22.4,6.2,29.74,NNW,330,2.0,10.0,49,0.00,,SKC,0.00,VWS V14.01,2013-02-18 02:02:00,
2013-02-17 21:07:00,22.2,5.5,29.74,NNW,330,7.0,12.0,48,0.00,,SKC,0.00,VWS V14.01,2013-02-18 02:07:00,
2013-02-17 21:12:00,22.1,5.4,29.74,NNW,330,4.0,8.0,48,0.00,,SKC,0.00,VWS V14.01,2013-02-18 02:12:00,
2013-02-17 21:17:00,21.9,5.2,29.75,NNW,330,5.0,11.0,48,0.00,,SKC,0.00,VWS V14.01,2013-02-18 02:17:00,
2013-02-17 21:22:00,21.8,5.1,29.75,NNW,330,10.0,10.0,48,0.00,,SKC,0.00,VWS V14.01,2013-02-18 02:22:00,
2013-02-17 21:27:00,21.6,5.0,29.75,NNW,330,4.0,12.0,48,0.00,,SKC,0.00,VWS V14.01,2013-02-18 02:27:00,
2013-02-17 21:33:00,21.6,5.4,29.74,NNW,330,8.0,25.0,49,0.00,,SKC,0.00,VWS V14.01,2013-02-18 02:33:00,
2013-02-17 21:38:00,21.4,5.2,29.75,NNW,330,12.0,25.0,49,0.00,,SKC,0.00,VWS V14.01,2013-02-18 02:38:00,
2013-02-17 21:43:00,21.3,5.6,29.75,NNW,330,5.0,13.0,50,0.00,,SKC,0.00,VWS V14.01,2013-02-18 02:43:00,
2013-02-17 21:48:00,21.3,6.0,29.75,NNW,330,3.0,13.0,51,0.00,,SKC,0.00,VWS V14.01,2013-02-18 02:48:00,
2013-02-17 21:53:00,21.1,5.4,29.75,NNW,330,3.0,15.0,50,0.00,,SKC,0.00,VWS V14.01,2013-02-18 02:53:00,
2013-02-17 21:58:00,21.0,5.3,29.75,NNW,330,10.0,18.0,50,0.00,,SKC,0.00,VWS V14.01,2013-02-18 02:58:00,
2013-02-17 22:03:00,20.8,5.1,29.76,NNW,330,4.0,11.0,50,0.00,,SKC,0.00,VWS V14.01,2013-02-18 03:03:00,
2013-02-17 22:08:00,20.8,5.1,29.76,NNW,330,3.0,11.0,50,0.00,,SKC,0.00,VWS V14.01,2013-02-18 03:08:00,
2013-02-17 22:13:00,20.8,5.5,29.76,NNW,330,4.0,7.0,51,0.00,,SKC,0.00,VWS V14.01,2013-02-18 03:13:00,
2013-02-17 22:18:00,20.8,6.0,29.76,NNW,330,2.0,18.0,52,0.00,,SKC,0.00,VWS V14.01,2013-02-18 03:18:00,
2013-02-17 22:23:00,20.8,6.8,29.76,NNW,330,3.0,15.0,54,0.00,,SKC,0.00,VWS V14.01,2013-02-18 03:23:00,
2013-02-17 22:28:00,20.6,6.6,29.77,NNW,330,3.0,15.0,54,0.00,,SKC,0.00,VWS V14.01,2013-02-18 03:28:00,
2013-02-17 22:33:00,20.6,6.6,29.77,NNW,330,2.0,4.0,54,0.00,,SKC,0.00,VWS V14.01,2013-02-18 03:33:00,
2013-02-17 22:39:00,20.5,6.9,29.77,NNW,330,5.0,14.0,55,0.00,,SKC,0.00,VWS V14.01,2013-02-18 03:39:00,
2013-02-17 22:44:00,20.3,7.1,29.77,NNW,330,2.0,11.0,56,0.00,,SKC,0.00,VWS V14.01,2013-02-18 03:44:00,
2013-02-17 22:49:00,20.2,7.0,29.77,NNW,330,2.0,18.0,56,0.00,,SKC,0.00,VWS V14.01,2013-02-18 03:49:00,
2013-02-17 22:54:00,20.2,7.4,29.77,NNW,330,12.0,18.0,57,0.00,,SKC,0.00,VWS V14.01,2013-02-18 03:54:00,
2013-02-17 22:59:00,20.0,7.2,29.77,NNW,330,11.0,20.0,57,0.00,,SKC,0.00,VWS V14.01,2013-02-18 03:59:00,
2013-02-17 23:04:00,19.9,6.8,29.77,NNW,330,2.0,16.0,56,0.00,,SKC,0.00,VWS V14.01,2013-02-18 04:04:00,
2013-02-17 23:09:00,19.7,6.6,29.77,NNW,330,0.0,16.0,56,0.00,,SKC,0.00,VWS V14.01,2013-02-18 04:09:00,
2013-02-17 23:14:00,19.7,6.9,29.78,NNW,330,6.0,11.0,57,0.00,,SKC,0.00,VWS V14.01,2013-02-18 04:14:00,
2013-02-17 23:19:00,19.5,6.8,29.78,NNW,330,11.0,11.0,57,0.00,,SKC,0.00,VWS V14.01,2013-02-18 04:19:00,
2013-02-17 23:24:00,19.4,6.3,29.78,NNW,330,6.0,13.0,56,0.00,,SKC,0.00,VWS V14.01,2013-02-18 04:24:00,
2013-02-17 23:29:00,19.2,6.5,29.78,NNW,330,3.0,13.0,57,0.00,,SKC,0.00,VWS V14.01,2013-02-18 04:29:00,
2013-02-17 23:34:00,19.2,6.5,29.78,NNW,330,5.0,19.0,57,0.00,,SKC,0.00,VWS V14.01,2013-02-18 04:34:00,
2013-02-17 23:40:00,19.2,6.5,29.79,NNW,330,4.0,19.0,57,0.00,,SKC,0.00,VWS V14.01,2013-02-18 04:40:00,
2013-02-17 23:45:00,19.2,6.5,29.79,NNW,330,4.0,19.0,57,0.00,,SKC,0.00,VWS V14.01,2013-02-18 04:45:00,
2013-02-17 23:50:00,19.1,6.4,29.79,NNW,330,5.0,19.0,57,0.00,,SKC,0.00,VWS V14.01,2013-02-18 04:50:00,
2013-02-17 23:55:00,19.1,6.4,29.79,NNW,330,1.0,9.0,57,0.00,,SKC,0.00,VWS V14.01,2013-02-18 04:55:00,